ADDS METAR Data INFO
IDs: Format: Raw Decoded Include TAF

Data at: 1714 UTC 23 Oct 2017

KBBW 231653Z AUTO 33023G37KT 10SM CLR 15/M02 A3019 RMK AO2 PK WND 31037/1643 SLP222 T01501017
KBBW 231553Z AUTO 34022G40KT 10SM CLR 13/M02 A3019 RMK AO2 PK WND 32043/1527 SLP226 T01331017
KBBW 231453Z AUTO 33018G27KT 10SM CLR 12/M02 A3018 RMK AO2 PK WND 32034/1420 SLP222 T01221022 51029
KBBW 231353Z AUTO 33019G26KT 10SM FEW120 12/M03 A3016 RMK AO2 PK WND 35038/1259 SLP215 T01221028
KBBW 231253Z AUTO 33022G33KT 10SM BKN100 13/M03 A3012 RMK AO2 PK WND 32033/1244 SLP201 T01331033
KBBW 231153Z AUTO 33019G27KT 10SM CLR 13/00 A3009 RMK AO2 PK WND 33028/1110 SLP182 T01330000 10156 20083 51033
KBBW 231053Z AUTO 33015G27KT 10SM CLR 13/03 A3006 RMK AO2 PK WND 35030/1024 SLP169 T01280028
KBBW 230953Z AUTO 34019G24KT 10SM FEW110 13/04 A3003 RMK AO2 PK WND 35026/0941 SLP158 T01330039
KBBW 230853Z AUTO 35014KT 10SM CLR 13/02 A2998 RMK AO2 PK WND 35028/0834 SLP141 T01280022 53017
KBBW 230753Z AUTO 32014KT 10SM CLR 13/02 A2995 RMK AO2 PK WND 33030/0724 WSHFT 0715 SLP131 T01330017
KBBW 230735Z AUTO 32014KT 10SM CLR 15/02 A2994 RMK AO2 PK WND 33030/0724 WSHFT 0715 T01500017
KBBW 230653Z AUTO 28009KT 10SM CLR 11/02 A2991 RMK AO2 SLP121 T01110017
KBBW 230553Z AUTO 28007KT 10SM CLR 09/02 A2993 RMK AO2 SLP128 T00940017 10139 20050 402061033 55007
KBBW 230453Z AUTO 25008KT 10SM CLR 09/02 A2992 RMK AO2 SLP130 T00890017
KBBW 230353Z AUTO 00000KT 10SM CLR 06/01 A2994 RMK AO2 SLP142 T00610011
KBBW 230253Z AUTO 00000KT 10SM CLR 07/02 A2995 RMK AO2 SLP148 T00670017 51005
KBBW 230153Z AUTO 00000KT 10SM CLR 07/03 A2994 RMK AO2 SLP150 T00720028
KBBW 230053Z AUTO 14003KT 10SM CLR 07/02 A2995 RMK AO2 SLP156 T00720017
KBBW 222353Z AUTO 00000KT 10SM CLR 13/02 A2994 RMK AO2 SLP146 T01330022 10206 20133 56014
KBBW 222253Z AUTO 24007KT 10SM CLR 18/02 A2994 RMK AO2 SLP143 T01780017
KBBW 222153Z AUTO 23011G18KT 10SM CLR 21/M02 A2996 RMK AO2 SLP150 T02061022
KBBW 222053Z AUTO 25016G23KT 10SM CLR 20/M02 A2998 RMK AO2 PK WND 25037/2037 SLP155 T02001017 56026
KBBW 221953Z AUTO 26023G28KT 10SM CLR 19/M01 A3000 RMK AO2 PK WND 23029/1915 SLP160 T01941011
KBBW 221853Z AUTO 25018G24KT 10SM CLR 18/M02 A3003 RMK AO2 PK WND 24029/1837 SLP173 T01831017
KBBW 221753Z AUTO 25012KT 10SM CLR 17/M01 A3006 RMK AO2 SLP182 T01721011 10172 21033 58017
KBBW 221653Z AUTO 26016KT 10SM CLR 14/M02 A3010 RMK AO2 SLP198 T01391017
KBBW 221553Z AUTO 26009KT 10SM CLR 11/M01 A3012 RMK AO2 SLP210 T01061011
KBBW 221453Z AUTO 25009KT 10SM CLR 07/01 A3012 RMK AO2 SLP208 T00720006 53006
KBBW 221353Z AUTO 00000KT 10SM CLR 02/M02 A3011 RMK AO2 SLP212 T00221022
KBBW 221253Z AUTO 00000KT 10SM CLR M01/M04 A3010 RMK AO2 SLP210 T10061039
KBBW 221153Z AUTO 00000KT 10SM CLR M02/M04 A3010 RMK AO2 SLP208 I1000 I6000 T10221044 10011 21033 53013
KBBW 221053Z AUTO 00000KT 10SM CLR M03/M05 A3008 RMK AO2 SLP198 T10281050
KBBW 220953Z AUTO 00000KT 10SM CLR M03/M04 A3007 RMK AO2 SLP192 T10281044
KBBW 220853Z AUTO 00000KT 10SM CLR M02/M04 A3006 RMK AO2 SLP188 T10221039 55001
KBBW 220753Z AUTO 00000KT 10SM CLR M01/M04 A3005 RMK AO2 SLP186 T10111039
KBBW 220653Z AUTO 00000KT 10SM CLR M01/M03 A3005 RMK AO2 SLP187 T10061028
KBBW 220553Z AUTO 00000KT 10SM CLR 01/M02 A3006 RMK AO2 SLP188 T00111022 10089 20006 401780006 53023